createdAt,value
2019-01-16T00:02:18.020Z,5.03
2019-01-16T00:04:51.056Z,4.80
2019-01-16T00:07:29.877Z,5.10
2019-01-16T00:10:17.337Z,4.50
2019-01-16T00:12:53.701Z,4.50
2019-01-16T00:15:26.878Z,5.50
2019-01-16T00:18:17.014Z,4.70
2019-01-16T00:20:58.140Z,4.90
2019-01-16T00:23:28.247Z,4.27
2019-01-16T00:26:16.751Z,5.10
2019-01-16T00:28:55.682Z,4.73
2019-01-16T00:31:35.407Z,4.83
2019-01-16T00:34:06.012Z,5.00
2019-01-16T00:36:42.164Z,5.20
2019-01-16T00:39:12.338Z,4.60
2019-01-16T00:41:47.964Z,4.73
2019-01-16T00:44:18.156Z,4.43
2019-01-16T00:47:06.521Z,4.40
2019-01-16T00:49:52.457Z,4.37
2019-01-16T00:52:28.403Z,4.60
2019-01-16T00:55:14.413Z,4.20
2019-01-16T00:57:47.287Z,4.57
2019-01-16T01:00:18.434Z,4.57
2019-01-16T01:02:48.539Z,4.30
2019-01-16T01:05:34.798Z,3.73
2019-01-16T01:08:10.845Z,4.77
2019-01-16T01:10:43.761Z,4.40
2019-01-16T01:13:19.892Z,4.90
2019-01-16T01:16:05.292Z,4.57
2019-01-16T01:18:40.669Z,4.30
2019-01-16T01:21:19.170Z,4.70
2019-01-16T01:23:52.099Z,4.43
2019-01-16T01:26:28.249Z,4.67
2019-01-16T01:28:58.445Z,4.10
2019-01-16T01:31:28.632Z,5.10
2019-01-16T01:34:10.521Z,4.37
2019-01-16T01:36:58.240Z,5.30
2019-01-16T01:39:31.194Z,4.83
2019-01-16T01:42:17.699Z,4.33
2019-01-16T01:45:03.943Z,5.03
2019-01-16T01:47:50.359Z,4.97
2019-01-16T01:50:32.447Z,4.30
2019-01-16T01:53:06.257Z,4.60
2019-01-16T01:55:38.942Z,4.50
2019-01-16T01:58:09.209Z,4.43
2019-01-16T02:00:52.877Z,4.00
2019-01-16T02:03:22.996Z,4.63
2019-01-16T02:06:02.554Z,4.27
2019-01-16T02:08:35.769Z,4.50
2019-01-16T02:11:12.293Z,4.13
2019-01-16T02:13:42.406Z,4.63
2019-01-16T02:16:15.299Z,4.43
2019-01-16T02:18:47.434Z,4.40
2019-01-16T02:21:28.825Z,4.67
2019-01-16T02:24:10.564Z,4.73
2019-01-16T02:26:46.425Z,4.53
2019-01-16T02:29:19.357Z,4.70
2019-01-16T02:31:55.507Z,4.73
2019-01-16T02:34:34.747Z,4.40
2019-01-16T02:37:07.740Z,4.63
2019-01-16T02:39:54.825Z,4.90
2019-01-16T02:42:33.784Z,4.70
2019-01-16T02:45:12.443Z,4.20
2019-01-16T02:47:48.080Z,4.40
2019-01-16T02:50:18.335Z,5.07
2019-01-16T02:52:48.535Z,4.70
2019-01-16T02:55:18.710Z,4.83
2019-01-16T02:57:57.655Z,4.70
2019-01-16T03:00:30.317Z,4.30
2019-01-16T03:03:03.034Z,4.70
2019-01-16T03:05:36.019Z,4.50
2019-01-16T03:08:06.307Z,4.53
2019-01-16T03:10:52.737Z,4.47
2019-01-16T03:13:23.196Z,4.07
2019-01-16T03:16:10.992Z,4.50
2019-01-16T03:18:43.902Z,4.37
2019-01-16T03:21:14.134Z,4.43
2019-01-16T03:23:44.332Z,4.07
2019-01-16T03:26:14.515Z,4.13
2019-01-16T03:28:47.479Z,4.03
2019-01-16T03:31:26.763Z,4.50
2019-01-16T03:33:59.658Z,3.90
2019-01-16T03:36:32.561Z,4.33
2019-01-16T03:39:08.295Z,4.03
2019-01-16T03:41:50.261Z,4.40
2019-01-16T03:44:20.406Z,4.63
2019-01-16T03:46:57.032Z,4.40
2019-01-16T03:49:29.900Z,4.10
2019-01-16T03:52:04.594Z,3.93
2019-01-16T03:54:52.692Z,3.87
2019-01-16T03:57:31.722Z,3.93
2019-01-16T04:00:07.434Z,3.80
2019-01-16T04:02:37.638Z,4.07
2019-01-16T04:05:11.862Z,3.87
2019-01-16T04:07:48.038Z,4.00
2019-01-16T04:10:26.568Z,4.20
2019-01-16T04:13:08.914Z,4.20
2019-01-16T04:15:39.092Z,4.10
2019-01-16T04:18:15.108Z,4.47
2019-01-16T04:20:45.427Z,3.93
2019-01-16T04:23:27.563Z,4.03
2019-01-16T04:26:09.581Z,4.00
2019-01-16T04:28:42.535Z,3.53
2019-01-16T04:31:18.721Z,3.83
2019-01-16T04:33:48.923Z,3.90
2019-01-16T04:36:19.066Z,3.87
2019-01-16T04:38:51.716Z,4.03
2019-01-16T04:41:31.085Z,3.77
2019-01-16T04:44:06.766Z,3.97
2019-01-16T04:46:48.937Z,4.13
2019-01-16T04:49:30.975Z,4.50
2019-01-16T04:52:06.894Z,4.00
2019-01-16T04:54:42.769Z,4.37
2019-01-16T04:57:12.950Z,4.63
2019-01-16T04:59:43.156Z,4.60
2019-01-16T05:02:16.343Z,4.40
2019-01-16T05:04:46.587Z,4.60
2019-01-16T05:07:19.704Z,4.03
2019-01-16T05:09:50.257Z,4.17
2019-01-16T05:12:23.387Z,4.33
2019-01-16T05:15:02.358Z,4.67
2019-01-16T05:17:51.424Z,5.10
2019-01-16T05:20:24.556Z,4.93
2019-01-16T05:23:03.553Z,4.50
2019-01-16T05:25:40.878Z,4.80
2019-01-16T05:28:16.501Z,4.73
2019-01-16T05:30:46.848Z,4.70
2019-01-16T05:33:17.048Z,4.90
2019-01-16T05:35:47.233Z,4.87
2019-01-16T05:38:33.104Z,5.53
2019-01-16T05:41:20.865Z,4.97
2019-01-16T05:44:07.088Z,4.37
2019-01-16T05:46:46.209Z,4.90
2019-01-16T05:49:27.186Z,5.20
2019-01-16T05:52:03.007Z,4.50
2019-01-16T05:54:51.288Z,4.37
2019-01-16T05:57:29.863Z,4.60
2019-01-16T06:00:00.049Z,4.50
2019-01-16T06:02:35.735Z,4.50
2019-01-16T06:05:16.517Z,4.50
2019-01-16T06:07:55.501Z,4.57
2019-01-16T06:10:28.294Z,4.27
2019-01-16T06:13:01.143Z,5.27
2019-01-16T06:15:31.411Z,4.47
2019-01-16T06:18:04.607Z,4.53
2019-01-16T06:20:40.536Z,4.77
2019-01-16T06:23:11.051Z,4.57
2019-01-16T06:25:53.378Z,4.50
2019-01-16T06:28:26.276Z,5.03
2019-01-16T06:30:56.464Z,5.00
2019-01-16T06:33:26.768Z,4.83
2019-01-16T06:36:03.053Z,4.60
2019-01-16T06:38:39.045Z,4.83
2019-01-16T06:41:09.227Z,4.30
2019-01-16T06:43:42.171Z,4.10
2019-01-16T06:46:21.424Z,3.77
2019-01-16T06:48:51.645Z,4.53
2019-01-16T06:51:28.185Z,3.77
2019-01-16T06:54:01.493Z,4.93
2019-01-16T06:56:38.176Z,4.60
2019-01-16T06:59:14.140Z,5.77
2019-01-16T07:02:00.532Z,4.60
2019-01-16T07:04:30.796Z,4.80
2019-01-16T07:07:06.563Z,4.37
2019-01-16T07:10:02.527Z,4.60
2019-01-16T07:12:44.376Z,4.13
2019-01-16T07:15:23.704Z,4.40
2019-01-16T07:17:53.912Z,4.43
2019-01-16T07:20:43.718Z,4.70
2019-01-16T07:23:23.317Z,4.67
2019-01-16T07:26:00.372Z,4.63
2019-01-16T07:28:46.306Z,4.93
2019-01-16T07:31:29.017Z,4.73
2019-01-16T07:34:13.831Z,4.87
2019-01-16T07:36:49.455Z,5.27
2019-01-16T07:42:46.817Z,4.53
2019-01-16T07:45:12.658Z,5.13
2019-01-16T07:47:42.882Z,5.23
2019-01-16T07:50:17.168Z,5.27
2019-01-16T07:52:54.001Z,5.23
2019-01-16T07:55:40.588Z,5.13
2019-01-16T07:58:10.805Z,4.87
2019-01-16T08:00:49.648Z,5.20
2019-01-16T08:03:19.874Z,4.90
2019-01-16T08:05:50.057Z,5.33
2019-01-16T08:08:36.187Z,5.57
2019-01-16T08:11:22.233Z,4.73
2019-01-16T08:13:54.858Z,5.07
2019-01-16T08:16:32.136Z,4.83
2019-01-16T08:19:02.438Z,5.27
2019-01-16T08:21:44.908Z,5.53
2019-01-16T08:24:15.140Z,5.10
2019-01-16T08:26:48.040Z,4.80
2019-01-16T08:29:21.015Z,5.30
2019-01-16T08:31:51.210Z,5.10
2019-01-16T08:34:24.686Z,5.33
2019-01-16T08:36:58.946Z,4.80
2019-01-16T08:39:41.392Z,5.27
2019-01-16T08:42:17.588Z,5.13
2019-01-16T08:45:03.004Z,5.47
2019-01-16T08:47:38.884Z,4.77
2019-01-16T08:50:32.760Z,4.67
2019-01-16T08:53:06.976Z,5.20
2019-01-16T08:55:42.651Z,4.40
2019-01-16T08:58:15.532Z,5.47
2019-01-16T09:00:51.609Z,4.63
2019-01-16T09:03:22.702Z,4.63
2019-01-16T09:06:01.718Z,4.80
2019-01-16T09:08:47.024Z,5.13
2019-01-16T09:11:20.039Z,4.50
2019-01-16T09:13:50.222Z,4.53
2019-01-16T09:16:20.419Z,4.43
2019-01-16T09:18:59.074Z,4.43
2019-01-16T09:21:31.790Z,4.80
2019-01-16T09:24:02.407Z,4.10
2019-01-16T09:26:43.861Z,4.50
2019-01-16T09:29:14.101Z,5.20
2019-01-16T09:31:44.279Z,5.13
2019-01-16T09:34:29.221Z,4.40
2019-01-16T09:37:13.502Z,4.00
2019-01-16T09:39:46.943Z,3.87
2019-01-16T09:42:34.277Z,3.63
2019-01-16T09:45:14.272Z,3.60
2019-01-16T09:47:44.739Z,3.27
2019-01-16T09:50:30.188Z,4.00
2019-01-16T09:53:03.791Z,3.70
2019-01-16T09:55:34.323Z,4.10
2019-01-16T09:58:04.839Z,3.60
2019-01-16T10:00:36.285Z,3.50
2019-01-16T10:03:18.889Z,3.47
2019-01-16T10:05:58.524Z,4.90
2019-01-16T10:08:36.023Z,4.00
2019-01-16T10:11:13.221Z,3.83
2019-01-16T10:13:43.739Z,3.80
2019-01-16T10:16:16.935Z,4.50
2019-01-16T10:18:56.595Z,4.63
2019-01-16T10:21:40.730Z,4.80
2019-01-16T10:24:11.365Z,3.83
2019-01-16T10:26:58.272Z,4.20
2019-01-16T10:29:34.631Z,3.80
2019-01-16T10:32:17.229Z,3.50
2019-01-16T10:35:02.735Z,4.00
2019-01-16T10:37:40.531Z,3.77
2019-01-16T10:40:13.629Z,4.03
2019-01-16T10:42:53.948Z,4.30
2019-01-16T10:45:40.658Z,3.97
2019-01-16T10:48:22.894Z,3.97
2019-01-16T10:50:53.413Z,3.93
2019-01-16T10:53:24.149Z,3.90
2019-01-16T10:55:54.775Z,3.73
2019-01-16T10:58:34.289Z,4.17
2019-01-16T11:01:05.679Z,3.50
2019-01-16T11:03:52.509Z,4.07
2019-01-16T11:06:37.971Z,3.87
2019-01-16T11:09:26.414Z,3.60
2019-01-16T11:11:56.884Z,4.20
2019-01-16T11:14:27.339Z,4.47
2019-01-16T11:16:58.051Z,4.00
2019-01-16T11:19:43.381Z,4.60
2019-01-16T11:22:26.750Z,4.57
2019-01-16T11:24:59.913Z,3.83
2019-01-16T11:27:31.866Z,4.13
2019-01-16T11:30:20.525Z,4.50
2019-01-16T11:33:07.206Z,4.87
2019-01-16T11:35:40.731Z,4.40
2019-01-16T11:38:11.333Z,4.23
2019-01-16T11:40:53.373Z,4.10
2019-01-16T11:43:26.970Z,4.50
2019-01-16T11:46:16.342Z,4.50
2019-01-16T11:48:46.970Z,4.20
2019-01-16T11:51:18.877Z,4.43
2019-01-16T11:54:01.809Z,4.20
2019-01-16T11:56:32.244Z,4.50
2019-01-16T11:59:08.496Z,4.20
2019-01-16T12:01:45.736Z,4.00
2019-01-16T12:04:21.552Z,4.50
2019-01-16T12:07:03.670Z,4.80
2019-01-16T12:09:59.922Z,4.97
2019-01-16T12:12:41.486Z,4.73
2019-01-16T12:15:28.220Z,4.80
2019-01-16T12:18:15.828Z,4.70
2019-01-16T12:20:52.258Z,4.53
2019-01-16T12:23:38.886Z,3.93
2019-01-16T12:26:21.939Z,4.30
2019-01-16T12:28:55.130Z,4.27
2019-01-16T12:31:30.614Z,4.50
2019-01-16T12:34:03.591Z,4.23
2019-01-16T12:36:42.366Z,4.77
2019-01-16T12:39:37.912Z,4.77
2019-01-16T12:42:13.644Z,4.10
2019-01-16T12:44:53.524Z,3.90
2019-01-16T12:47:28.275Z,4.10
2019-01-16T12:50:01.351Z,4.67
2019-01-16T12:52:37.442Z,4.57
2019-01-16T12:55:09.060Z,4.43
2019-01-16T12:57:54.200Z,4.90
2019-01-16T13:00:27.060Z,4.83
2019-01-16T13:03:02.860Z,5.30
2019-01-16T13:05:33.050Z,5.33
2019-01-16T13:08:19.291Z,4.77
2019-01-16T13:11:17.284Z,4.87
2019-01-16T13:13:56.923Z,5.27
2019-01-16T13:16:27.500Z,4.30
2019-01-16T13:19:15.991Z,4.90
2019-01-16T13:21:46.259Z,5.27
2019-01-16T13:24:25.190Z,4.63
2019-01-16T13:26:58.432Z,5.53
2019-01-16T13:29:29.046Z,5.27
2019-01-16T13:32:00.311Z,5.53
2019-01-16T13:34:39.502Z,6.07
2019-01-16T13:37:13.063Z,5.93
2019-01-16T13:39:45.816Z,5.17
2019-01-16T13:42:16.047Z,6.37
2019-01-16T13:44:59.496Z,6.00
2019-01-16T13:47:49.605Z,6.30
2019-01-16T13:50:19.787Z,6.47
2019-01-16T13:52:52.586Z,5.70
2019-01-16T13:55:22.757Z,6.13
2019-01-16T13:58:00.306Z,5.90
2019-01-16T14:00:31.352Z,6.40
2019-01-16T14:03:21.902Z,6.07
2019-01-16T14:06:10.947Z,6.70
2019-01-16T14:08:53.066Z,6.10
2019-01-16T14:11:39.208Z,6.47
2019-01-16T14:14:15.085Z,7.50
2019-01-16T14:17:02.034Z,6.37
2019-01-16T14:19:56.145Z,6.10
2019-01-16T14:22:26.359Z,6.20
2019-01-16T14:25:08.274Z,7.00
2019-01-16T14:27:42.879Z,7.43
2019-01-16T14:30:16.195Z,6.97
2019-01-16T14:33:01.182Z,7.00
2019-01-16T14:35:31.445Z,7.57
2019-01-16T14:38:04.722Z,7.10
2019-01-16T14:40:35.086Z,7.47
2019-01-16T14:43:11.002Z,6.30
2019-01-16T14:45:47.168Z,7.20
2019-01-16T14:48:17.414Z,7.60
2019-01-16T14:51:03.835Z,7.80
2019-01-16T14:53:36.665Z,7.20
2019-01-16T14:56:22.218Z,8.23
2019-01-16T14:59:04.469Z,7.07
2019-01-16T15:01:37.385Z,7.67
2019-01-16T15:04:11.335Z,8.60
2019-01-16T15:06:47.591Z,8.20
2019-01-16T15:09:30.183Z,9.20
2019-01-16T15:12:06.128Z,8.40
2019-01-16T15:14:54.199Z,8.90
2019-01-16T15:17:39.857Z,8.27
2019-01-16T15:20:28.280Z,8.70
2019-01-16T15:22:58.527Z,9.20
2019-01-16T15:25:28.792Z,8.23
2019-01-16T15:27:58.991Z,9.13
2019-01-16T15:30:34.638Z,9.27
2019-01-16T15:33:11.001Z,9.13
2019-01-16T15:35:43.838Z,9.10
2019-01-16T15:38:32.447Z,9.60
2019-01-16T15:41:14.016Z,8.57
2019-01-16T15:43:50.008Z,8.87
2019-01-16T15:46:31.928Z,9.27
2019-01-16T15:49:06.620Z,9.07
2019-01-16T15:51:45.643Z,9.60
2019-01-16T15:54:28.074Z,9.00
2019-01-16T15:57:26.581Z,9.20
2019-01-16T16:00:14.735Z,10.50
2019-01-16T16:02:51.769Z,9.20
2019-01-16T16:05:44.622Z,9.50
2019-01-16T16:07:58.360Z,10.10
2019-01-16T16:10:38.794Z,9.80
2019-01-16T16:13:11.542Z,9.57
2019-01-16T16:15:50.882Z,10.00
2019-01-16T16:18:27.330Z,8.90
2019-01-16T16:21:00.472Z,10.23
2019-01-16T16:23:30.870Z,9.23
2019-01-16T16:26:01.213Z,9.67
2019-01-16T16:28:37.359Z,9.43
2019-01-16T16:31:12.479Z,9.77
2019-01-16T16:33:51.898Z,9.80
2019-01-16T16:36:38.207Z,10.33
2019-01-16T16:39:15.288Z,9.77
2019-01-16T16:41:59.622Z,8.93
2019-01-16T16:44:30.014Z,9.97
2019-01-16T16:47:06.333Z,9.23
2019-01-16T16:49:36.783Z,9.47
2019-01-16T16:52:11.553Z,9.90
2019-01-16T16:54:47.646Z,9.13
2019-01-16T16:57:23.500Z,9.33
2019-01-16T17:00:02.394Z,9.50
2019-01-16T17:02:32.735Z,9.03
2019-01-16T17:05:18.851Z,9.00
2019-01-16T17:07:51.902Z,9.93
2019-01-16T17:10:22.415Z,9.57
2019-01-16T17:12:56.037Z,9.30
2019-01-16T17:15:31.759Z,9.27
2019-01-16T17:18:04.686Z,9.23
2019-01-16T17:20:40.848Z,9.63
2019-01-16T17:23:17.128Z,8.70
2019-01-16T17:26:06.339Z,8.93
2019-01-16T17:28:42.946Z,9.20
2019-01-16T17:31:15.734Z,9.50
2019-01-16T17:34:00.947Z,9.23
2019-01-16T17:36:46.890Z,9.10
2019-01-16T17:39:29.257Z,9.23
2019-01-16T17:42:14.676Z,8.50
2019-01-16T17:45:01.406Z,9.70
2019-01-16T17:47:47.591Z,8.87
2019-01-16T17:50:34.333Z,9.20
2019-01-16T17:53:10.778Z,10.17
2019-01-16T17:55:47.379Z,9.57
2019-01-16T17:58:29.415Z,9.33
2019-01-16T18:01:16.203Z,9.57
2019-01-16T18:03:55.752Z,9.57
2019-01-16T18:06:26.402Z,9.63
2019-01-16T18:09:08.282Z,9.83
2019-01-16T18:11:51.764Z,9.97
2019-01-16T18:14:32.140Z,9.60
2019-01-16T18:17:09.564Z,9.80
2019-01-16T18:19:45.372Z,9.80
2019-01-16T18:22:18.384Z,10.03
2019-01-16T18:25:06.391Z,10.10
2019-01-16T18:27:36.605Z,10.10
2019-01-16T18:30:22.015Z,9.33
2019-01-16T18:33:07.313Z,10.67
2019-01-16T18:35:37.564Z,9.83
2019-01-16T18:38:24.165Z,9.80
2019-01-16T18:40:54.351Z,9.63
2019-01-16T18:43:27.362Z,9.40
2019-01-16T18:46:13.953Z,10.33
2019-01-16T18:48:44.258Z,9.67
2019-01-16T18:51:17.025Z,10.23
2019-01-16T18:53:52.950Z,10.97
2019-01-16T18:56:39.333Z,9.90
2019-01-16T18:59:09.932Z,10.13
2019-01-16T19:01:46.325Z,10.57
2019-01-16T19:04:32.515Z,10.27
2019-01-16T19:07:02.734Z,10.20
2019-01-16T19:09:32.956Z,10.07
2019-01-16T19:12:03.222Z,10.23
2019-01-16T19:14:42.121Z,9.20
2019-01-16T19:17:30.894Z,10.03
2019-01-16T19:20:04.108Z,10.43
2019-01-16T19:22:40.248Z,10.17
2019-01-16T19:25:16.404Z,10.87
2019-01-16T19:27:49.430Z,10.13
2019-01-16T19:30:35.674Z,10.70
2019-01-16T19:33:24.810Z,10.00
2019-01-16T19:36:01.126Z,11.33
2019-01-16T19:38:38.113Z,9.90
2019-01-16T19:41:17.144Z,9.83
2019-01-16T19:43:47.499Z,10.87
2019-01-16T19:46:26.650Z,10.83
2019-01-16T19:48:56.875Z,10.40
2019-01-16T19:51:36.466Z,10.50
2019-01-16T19:54:13.112Z,10.00
2019-01-16T19:56:43.505Z,10.20
2019-01-16T19:59:16.847Z,10.00
2019-01-16T20:02:03.929Z,9.80
2019-01-16T20:04:52.276Z,9.87
2019-01-16T20:07:37.866Z,10.20
2019-01-16T20:10:17.513Z,10.33
2019-01-16T20:12:54.785Z,10.07
2019-01-16T20:15:34.022Z,9.43
2019-01-16T20:18:11.670Z,11.13
2019-01-16T20:20:41.875Z,9.77
2019-01-16T20:23:18.171Z,9.87
2019-01-16T20:26:04.624Z,10.20
2019-01-16T20:28:53.842Z,10.00
2019-01-16T20:31:42.212Z,9.40
2019-01-16T20:34:21.419Z,9.30
2019-01-16T20:37:06.515Z,10.10
2019-01-16T20:39:39.431Z,10.53
2019-01-16T20:42:14.219Z,10.67
2019-01-16T20:45:00.775Z,10.40
2019-01-16T20:47:46.934Z,9.63
2019-01-16T20:50:33.055Z,9.63
2019-01-16T20:53:17.461Z,10.27
2019-01-16T20:55:50.393Z,9.80
2019-01-16T20:58:30.911Z,10.10
2019-01-16T21:01:09.999Z,9.83
2019-01-16T21:03:51.718Z,9.80
2019-01-16T21:06:36.824Z,8.63
2019-01-16T21:09:16.280Z,9.80
2019-01-16T21:12:01.650Z,10.00
2019-01-16T21:14:37.982Z,9.80
2019-01-16T21:17:09.254Z,10.67
2019-01-16T21:19:55.824Z,9.83
2019-01-16T21:22:32.857Z,10.93
2019-01-16T21:25:05.621Z,9.80
2019-01-16T21:27:47.967Z,10.20
2019-01-16T21:30:35.736Z,10.43
2019-01-16T21:33:10.651Z,9.80
2019-01-16T21:35:49.755Z,10.40
2019-01-16T21:38:22.411Z,10.30
2019-01-16T21:41:08.759Z,9.50
2019-01-16T21:43:50.725Z,9.87
2019-01-16T21:46:35.873Z,9.93
2019-01-16T21:49:06.584Z,9.63
2019-01-16T21:51:36.864Z,9.80
2019-01-16T21:54:24.780Z,10.20
2019-01-16T21:56:56.943Z,9.90
2019-01-16T21:59:26.872Z,9.37
2019-01-16T22:02:02.701Z,9.40
2019-01-16T22:04:49.336Z,10.17
2019-01-16T22:07:19.787Z,9.60
2019-01-16T22:09:55.968Z,10.63
2019-01-16T22:12:32.224Z,9.87
2019-01-16T22:15:11.449Z,8.83
2019-01-16T22:17:56.637Z,10.03
2019-01-16T22:20:27.228Z,8.73
2019-01-16T22:23:15.343Z,9.73
2019-01-16T22:26:00.002Z,9.40
2019-01-16T22:28:46.173Z,8.83
2019-01-16T22:31:19.054Z,10.10
2019-01-16T22:33:52.211Z,8.73
2019-01-16T22:36:31.622Z,9.27
2019-01-16T22:39:17.793Z,9.50
2019-01-16T22:41:48.059Z,8.60
2019-01-16T22:44:30.109Z,8.50
2019-01-16T22:47:03.377Z,9.30
2019-01-16T22:49:33.705Z,8.60
2019-01-16T22:52:18.753Z,8.63
2019-01-16T22:54:48.890Z,8.87
2019-01-16T22:57:36.767Z,9.03
2019-01-16T23:00:16.095Z,8.83
2019-01-16T23:02:46.317Z,8.60
2019-01-16T23:05:22.946Z,9.27
2019-01-16T23:08:11.058Z,8.97
2019-01-16T23:11:32.196Z,8.67
2019-01-16T23:14:14.213Z,9.10
2019-01-16T23:16:59.276Z,8.10
2019-01-16T23:19:30.054Z,9.13
2019-01-16T23:22:00.572Z,8.33
2019-01-16T23:24:33.515Z,8.70
2019-01-16T23:27:22.632Z,8.67
2019-01-16T23:30:04.989Z,8.80
2019-01-16T23:32:40.974Z,9.30
2019-01-16T23:35:27.329Z,8.03
2019-01-16T23:37:57.462Z,8.33
2019-01-16T23:40:30.054Z,8.17
2019-01-16T23:43:00.338Z,7.77
2019-01-16T23:45:40.349Z,7.93
2019-01-16T23:48:25.303Z,7.90
2019-01-16T23:50:58.545Z,8.80
2019-01-16T23:53:40.512Z,8.57
2019-01-16T23:56:22.586Z,8.63
2019-01-16T23:58:58.315Z,8.53
